sensor_id;sensor_type;location;lat;lon;timestamp;P1;durP1;ratioP1;P2;durP2;ratioP2
64037;SDS011;54641;50.168;8.492;2022-11-04T00:01:41;14.40;;;9.60;;
64037;SDS011;54641;50.168;8.492;2022-11-04T00:04:14;12.60;;;8.10;;
64037;SDS011;54641;50.168;8.492;2022-11-04T00:06:46;11.30;;;8.20;;
64037;SDS011;54641;50.168;8.492;2022-11-04T00:09:17;12.70;;;8.80;;
64037;SDS011;54641;50.168;8.492;2022-11-04T00:11:49;11.10;;;7.50;;
64037;SDS011;54641;50.168;8.492;2022-11-04T00:14:38;11.40;;;7.20;;
64037;SDS011;54641;50.168;8.492;2022-11-04T00:17:09;10.20;;;5.80;;
64037;SDS011;54641;50.168;8.492;2022-11-04T00:19:50;9.70;;;6.50;;
64037;SDS011;54641;50.168;8.492;2022-11-04T00:22:39;7.90;;;5.40;;
64037;SDS011;54641;50.168;8.492;2022-11-04T00:25:28;9.80;;;5.10;;
64037;SDS011;54641;50.168;8.492;2022-11-04T00:28:17;9.00;;;5.00;;
64037;SDS011;54641;50.168;8.492;2022-11-04T00:31:06;5.40;;;3.90;;
64037;SDS011;54641;50.168;8.492;2022-11-04T00:33:56;5.10;;;3.30;;
64037;SDS011;54641;50.168;8.492;2022-11-04T00:36:27;5.40;;;3.70;;
64037;SDS011;54641;50.168;8.492;2022-11-04T00:38:57;5.70;;;3.40;;
64037;SDS011;54641;50.168;8.492;2022-11-04T00:41:28;5.20;;;3.40;;
64037;SDS011;54641;50.168;8.492;2022-11-04T00:43:59;5.70;;;3.20;;
64037;SDS011;54641;50.168;8.492;2022-11-04T00:46:31;4.00;;;2.60;;
64037;SDS011;54641;50.168;8.492;2022-11-04T00:49:02;3.90;;;2.20;;
64037;SDS011;54641;50.168;8.492;2022-11-04T00:51:32;4.70;;;2.60;;
64037;SDS011;54641;50.168;8.492;2022-11-04T00:54:04;4.70;;;2.60;;
64037;SDS011;54641;50.168;8.492;2022-11-04T00:56:37;4.50;;;2.50;;
64037;SDS011;54641;50.168;8.492;2022-11-04T00:59:08;4.40;;;2.60;;
64037;SDS011;54641;50.168;8.492;2022-11-04T01:04:10;4.90;;;2.00;;
64037;SDS011;54641;50.168;8.492;2022-11-04T01:06:41;5.10;;;2.40;;
64037;SDS011;54641;50.168;8.492;2022-11-04T01:09:12;4.20;;;2.50;;
64037;SDS011;54641;50.168;8.492;2022-11-04T01:11:44;4.40;;;2.50;;
64037;SDS011;54641;50.168;8.492;2022-11-04T01:14:16;3.60;;;2.00;;
64037;SDS011;54641;50.168;8.492;2022-11-04T01:16:47;5.50;;;2.50;;
64037;SDS011;54641;50.168;8.492;2022-11-04T01:19:18;7.80;;;2.70;;
64037;SDS011;54641;50.168;8.492;2022-11-04T01:24:20;3.60;;;1.90;;
64037;SDS011;54641;50.168;8.492;2022-11-04T01:26:50;3.80;;;2.40;;
64037;SDS011;54641;50.168;8.492;2022-11-04T01:29:21;4.90;;;2.20;;
64037;SDS011;54641;50.168;8.492;2022-11-04T01:31:51;3.90;;;2.20;;
64037;SDS011;54641;50.168;8.492;2022-11-04T01:34:22;4.40;;;2.90;;
64037;SDS011;54641;50.168;8.492;2022-11-04T01:36:52;2.70;;;1.70;;
64037;SDS011;54641;50.168;8.492;2022-11-04T01:39:25;4.10;;;2.40;;
64037;SDS011;54641;50.168;8.492;2022-11-04T01:41:56;4.90;;;2.30;;
64037;SDS011;54641;50.168;8.492;2022-11-04T01:47:30;2.90;;;1.70;;
64037;SDS011;54641;50.168;8.492;2022-11-04T01:50:05;4.00;;;1.90;;
64037;SDS011;54641;50.168;8.492;2022-11-04T01:52:38;4.40;;;2.80;;
64037;SDS011;54641;50.168;8.492;2022-11-04T01:55:15;5.00;;;1.80;;
64037;SDS011;54641;50.168;8.492;2022-11-04T01:57:51;3.60;;;1.90;;
64037;SDS011;54641;50.168;8.492;2022-11-04T02:00:27;4.10;;;2.30;;
64037;SDS011;54641;50.168;8.492;2022-11-04T02:03:00;4.30;;;2.10;;
64037;SDS011;54641;50.168;8.492;2022-11-04T02:05:35;4.70;;;2.20;;
64037;SDS011;54641;50.168;8.492;2022-11-04T02:08:08;4.00;;;1.80;;
64037;SDS011;54641;50.168;8.492;2022-11-04T02:10:45;3.70;;;1.90;;
64037;SDS011;54641;50.168;8.492;2022-11-04T02:13:20;2.90;;;1.50;;
64037;SDS011;54641;50.168;8.492;2022-11-04T02:15:54;4.40;;;1.80;;
64037;SDS011;54641;50.168;8.492;2022-11-04T02:18:31;3.20;;;1.80;;
64037;SDS011;54641;50.168;8.492;2022-11-04T02:24:24;4.80;;;2.00;;
64037;SDS011;54641;50.168;8.492;2022-11-04T02:27:16;9.20;;;4.20;;
64037;SDS011;54641;50.168;8.492;2022-11-04T02:32:57;2.60;;;1.50;;
64037;SDS011;54641;50.168;8.492;2022-11-04T02:35:41;2.80;;;1.60;;
64037;SDS011;54641;50.168;8.492;2022-11-04T02:38:20;2.70;;;1.60;;
64037;SDS011;54641;50.168;8.492;2022-11-04T02:41:02;4.10;;;1.60;;
64037;SDS011;54641;50.168;8.492;2022-11-04T02:43:43;3.10;;;1.50;;
64037;SDS011;54641;50.168;8.492;2022-11-04T02:46:19;2.70;;;1.40;;
64037;SDS011;54641;50.168;8.492;2022-11-04T02:48:58;3.00;;;1.50;;
64037;SDS011;54641;50.168;8.492;2022-11-04T02:51:34;2.40;;;1.30;;
64037;SDS011;54641;50.168;8.492;2022-11-04T03:01:02;5.70;;;3.10;;
64037;SDS011;54641;50.168;8.492;2022-11-04T03:03:41;4.20;;;2.40;;
64037;SDS011;54641;50.168;8.492;2022-11-04T03:06:16;3.60;;;1.70;;
64037;SDS011;54641;50.168;8.492;2022-11-04T03:08:50;3.30;;;1.30;;
64037;SDS011;54641;50.168;8.492;2022-11-04T03:11:22;3.50;;;1.30;;
64037;SDS011;54641;50.168;8.492;2022-11-04T03:13:54;3.60;;;1.40;;
64037;SDS011;54641;50.168;8.492;2022-11-04T03:16:27;3.20;;;1.10;;
64037;SDS011;54641;50.168;8.492;2022-11-04T03:19:05;3.80;;;2.00;;
64037;SDS011;54641;50.168;8.492;2022-11-04T03:21:39;3.00;;;1.20;;
64037;SDS011;54641;50.168;8.492;2022-11-04T03:24:14;3.30;;;1.50;;
64037;SDS011;54641;50.168;8.492;2022-11-04T03:26:46;3.30;;;1.30;;
64037;SDS011;54641;50.168;8.492;2022-11-04T03:29:22;2.30;;;1.10;;
64037;SDS011;54641;50.168;8.492;2022-11-04T03:32:01;1.90;;;1.30;;
64037;SDS011;54641;50.168;8.492;2022-11-04T03:34:34;2.00;;;1.10;;
64037;SDS011;54641;50.168;8.492;2022-11-04T03:37:06;2.50;;;1.00;;
64037;SDS011;54641;50.168;8.492;2022-11-04T03:39:37;2.40;;;0.90;;
64037;SDS011;54641;50.168;8.492;2022-11-04T03:42:08;3.90;;;1.00;;
64037;SDS011;54641;50.168;8.492;2022-11-04T03:44:48;2.60;;;1.00;;
64037;SDS011;54641;50.168;8.492;2022-11-04T03:47:20;1.30;;;0.90;;
64037;SDS011;54641;50.168;8.492;2022-11-04T03:49:52;2.90;;;1.10;;
64037;SDS011;54641;50.168;8.492;2022-11-04T03:52:26;2.30;;;1.30;;
64037;SDS011;54641;50.168;8.492;2022-11-04T03:54:57;3.40;;;1.30;;
64037;SDS011;54641;50.168;8.492;2022-11-04T03:57:35;3.40;;;1.00;;
64037;SDS011;54641;50.168;8.492;2022-11-04T04:00:10;3.10;;;1.80;;
64037;SDS011;54641;50.168;8.492;2022-11-04T04:05:33;2.10;;;1.00;;
64037;SDS011;54641;50.168;8.492;2022-11-04T04:08:11;2.50;;;1.00;;
64037;SDS011;54641;50.168;8.492;2022-11-04T04:10:47;2.00;;;1.10;;
64037;SDS011;54641;50.168;8.492;2022-11-04T04:13:22;1.50;;;0.90;;
64037;SDS011;54641;50.168;8.492;2022-11-04T04:15:59;1.20;;;0.80;;
64037;SDS011;54641;50.168;8.492;2022-11-04T04:18:37;4.50;;;1.00;;
64037;SDS011;54641;50.168;8.492;2022-11-04T04:21:13;2.90;;;1.10;;
64037;SDS011;54641;50.168;8.492;2022-11-04T04:23:45;2.40;;;1.10;;
64037;SDS011;54641;50.168;8.492;2022-11-04T04:26:38;2.30;;;1.00;;
64037;SDS011;54641;50.168;8.492;2022-11-04T04:29:27;1.90;;;1.40;;
64037;SDS011;54641;50.168;8.492;2022-11-04T04:31:58;2.70;;;1.20;;
64037;SDS011;54641;50.168;8.492;2022-11-04T04:34:30;2.70;;;1.00;;
64037;SDS011;54641;50.168;8.492;2022-11-04T04:37:02;6.30;;;1.60;;
64037;SDS011;54641;50.168;8.492;2022-11-04T04:39:35;2.80;;;1.30;;
64037;SDS011;54641;50.168;8.492;2022-11-04T04:42:25;2.30;;;1.10;;
64037;SDS011;54641;50.168;8.492;2022-11-04T04:45:20;6.20;;;2.90;;
64037;SDS011;54641;50.168;8.492;2022-11-04T04:47:52;2.30;;;1.50;;
64037;SDS011;54641;50.168;8.492;2022-11-04T04:50:24;4.00;;;1.10;;
64037;SDS011;54641;50.168;8.492;2022-11-04T04:52:56;4.90;;;1.40;;
64037;SDS011;54641;50.168;8.492;2022-11-04T04:55:27;1.60;;;1.20;;
64037;SDS011;54641;50.168;8.492;2022-11-04T04:57:58;6.40;;;1.30;;
64037;SDS011;54641;50.168;8.492;2022-11-04T05:00:28;6.60;;;1.60;;
64037;SDS011;54641;50.168;8.492;2022-11-04T05:03:00;6.60;;;3.30;;
64037;SDS011;54641;50.168;8.492;2022-11-04T05:05:30;12.70;;;4.70;;
64037;SDS011;54641;50.168;8.492;2022-11-04T05:08:04;5.60;;;2.20;;
64037;SDS011;54641;50.168;8.492;2022-11-04T05:10:35;2.80;;;1.40;;
64037;SDS011;54641;50.168;8.492;2022-11-04T05:13:06;6.80;;;1.70;;
64037;SDS011;54641;50.168;8.492;2022-11-04T05:15:56;4.50;;;1.60;;
64037;SDS011;54641;50.168;8.492;2022-11-04T05:18:30;5.20;;;1.70;;
64037;SDS011;54641;50.168;8.492;2022-11-04T05:21:03;3.10;;;1.50;;
64037;SDS011;54641;50.168;8.492;2022-11-04T05:26:06;3.70;;;1.30;;
64037;SDS011;54641;50.168;8.492;2022-11-04T05:28:37;3.90;;;1.70;;
64037;SDS011;54641;50.168;8.492;2022-11-04T05:31:07;4.20;;;1.80;;
64037;SDS011;54641;50.168;8.492;2022-11-04T05:33:38;3.40;;;1.50;;
64037;SDS011;54641;50.168;8.492;2022-11-04T05:36:09;3.90;;;1.90;;
64037;SDS011;54641;50.168;8.492;2022-11-04T05:38:41;6.20;;;2.30;;
64037;SDS011;54641;50.168;8.492;2022-11-04T05:41:11;7.10;;;2.20;;
64037;SDS011;54641;50.168;8.492;2022-11-04T05:43:52;4.40;;;1.40;;
64037;SDS011;54641;50.168;8.492;2022-11-04T05:46:24;4.60;;;1.50;;
64037;SDS011;54641;50.168;8.492;2022-11-04T05:48:55;5.50;;;1.80;;
64037;SDS011;54641;50.168;8.492;2022-11-04T05:51:26;5.40;;;1.90;;
64037;SDS011;54641;50.168;8.492;2022-11-04T05:53:57;6.80;;;2.10;;
64037;SDS011;54641;50.168;8.492;2022-11-04T05:56:28;4.80;;;2.40;;
64037;SDS011;54641;50.168;8.492;2022-11-04T05:58:59;6.70;;;1.80;;
64037;SDS011;54641;50.168;8.492;2022-11-04T06:01:31;5.30;;;1.90;;
64037;SDS011;54641;50.168;8.492;2022-11-04T06:04:03;3.70;;;2.00;;
64037;SDS011;54641;50.168;8.492;2022-11-04T06:06:35;4.50;;;2.10;;
64037;SDS011;54641;50.168;8.492;2022-11-04T06:09:05;3.80;;;2.60;;
64037;SDS011;54641;50.168;8.492;2022-11-04T06:11:36;5.10;;;2.30;;
64037;SDS011;54641;50.168;8.492;2022-11-04T06:14:07;5.10;;;1.90;;
64037;SDS011;54641;50.168;8.492;2022-11-04T06:16:45;3.30;;;2.00;;
64037;SDS011;54641;50.168;8.492;2022-11-04T06:19:17;6.60;;;2.10;;
64037;SDS011;54641;50.168;8.492;2022-11-04T06:21:48;5.50;;;2.50;;
64037;SDS011;54641;50.168;8.492;2022-11-04T06:24:18;4.60;;;2.30;;
64037;SDS011;54641;50.168;8.492;2022-11-04T06:26:49;5.10;;;2.20;;
64037;SDS011;54641;50.168;8.492;2022-11-04T06:29:19;9.60;;;4.70;;
64037;SDS011;54641;50.168;8.492;2022-11-04T06:31:49;8.50;;;3.80;;
64037;SDS011;54641;50.168;8.492;2022-11-04T06:34:20;5.00;;;2.60;;
64037;SDS011;54641;50.168;8.492;2022-11-04T06:37:06;4.00;;;2.10;;
64037;SDS011;54641;50.168;8.492;2022-11-04T06:39:37;3.80;;;2.10;;
64037;SDS011;54641;50.168;8.492;2022-11-04T06:42:08;6.00;;;2.00;;
64037;SDS011;54641;50.168;8.492;2022-11-04T06:44:42;6.90;;;3.10;;
64037;SDS011;54641;50.168;8.492;2022-11-04T06:47:15;4.80;;;1.90;;
64037;SDS011;54641;50.168;8.492;2022-11-04T06:49:51;5.50;;;2.30;;
64037;SDS011;54641;50.168;8.492;2022-11-04T06:52:22;4.10;;;2.10;;
64037;SDS011;54641;50.168;8.492;2022-11-04T06:54:52;7.80;;;2.60;;
64037;SDS011;54641;50.168;8.492;2022-11-04T06:57:23;3.70;;;2.30;;
64037;SDS011;54641;50.168;8.492;2022-11-04T06:59:53;5.80;;;2.50;;
64037;SDS011;54641;50.168;8.492;2022-11-04T07:02:24;4.70;;;2.10;;
64037;SDS011;54641;50.168;8.492;2022-11-04T07:04:54;6.10;;;2.30;;
64037;SDS011;54641;50.168;8.492;2022-11-04T07:07:25;4.60;;;1.70;;
64037;SDS011;54641;50.168;8.492;2022-11-04T07:09:58;5.10;;;2.20;;
64037;SDS011;54641;50.168;8.492;2022-11-04T07:12:28;8.60;;;2.30;;
64037;SDS011;54641;50.168;8.492;2022-11-04T07:14:59;8.30;;;2.10;;
64037;SDS011;54641;50.168;8.492;2022-11-04T07:17:31;6.30;;;2.10;;
64037;SDS011;54641;50.168;8.492;2022-11-04T07:20:02;3.70;;;2.10;;
64037;SDS011;54641;50.168;8.492;2022-11-04T07:22:34;7.20;;;2.20;;
64037;SDS011;54641;50.168;8.492;2022-11-04T07:25:05;8.10;;;2.60;;
64037;SDS011;54641;50.168;8.492;2022-11-04T07:27:36;8.10;;;2.60;;
64037;SDS011;54641;50.168;8.492;2022-11-04T07:30:08;7.00;;;2.30;;
64037;SDS011;54641;50.168;8.492;2022-11-04T07:32:39;4.50;;;2.20;;
64037;SDS011;54641;50.168;8.492;2022-11-04T07:35:09;9.40;;;3.00;;
64037;SDS011;54641;50.168;8.492;2022-11-04T07:37:40;9.40;;;2.60;;
64037;SDS011;54641;50.168;8.492;2022-11-04T07:40:11;6.50;;;2.40;;
64037;SDS011;54641;50.168;8.492;2022-11-04T07:42:41;10.40;;;3.10;;
64037;SDS011;54641;50.168;8.492;2022-11-04T07:45:16;6.40;;;3.50;;
64037;SDS011;54641;50.168;8.492;2022-11-04T07:47:47;5.30;;;2.70;;
64037;SDS011;54641;50.168;8.492;2022-11-04T07:50:17;9.20;;;3.30;;
64037;SDS011;54641;50.168;8.492;2022-11-04T07:52:48;5.90;;;3.20;;
64037;SDS011;54641;50.168;8.492;2022-11-04T07:55:19;5.30;;;2.80;;
64037;SDS011;54641;50.168;8.492;2022-11-04T07:57:50;7.90;;;3.10;;
64037;SDS011;54641;50.168;8.492;2022-11-04T08:00:22;9.20;;;2.90;;
64037;SDS011;54641;50.168;8.492;2022-11-04T08:02:52;7.50;;;3.60;;
64037;SDS011;54641;50.168;8.492;2022-11-04T08:05:23;5.90;;;3.10;;
64037;SDS011;54641;50.168;8.492;2022-11-04T08:07:53;6.00;;;3.50;;
64037;SDS011;54641;50.168;8.492;2022-11-04T08:10:24;4.90;;;3.10;;
64037;SDS011;54641;50.168;8.492;2022-11-04T08:12:56;6.30;;;3.80;;
64037;SDS011;54641;50.168;8.492;2022-11-04T08:15:26;12.70;;;4.00;;
64037;SDS011;54641;50.168;8.492;2022-11-04T08:17:57;7.30;;;3.00;;
64037;SDS011;54641;50.168;8.492;2022-11-04T08:20:27;9.10;;;3.00;;
64037;SDS011;54641;50.168;8.492;2022-11-04T08:22:58;8.10;;;3.70;;
64037;SDS011;54641;50.168;8.492;2022-11-04T08:25:28;7.70;;;3.20;;
64037;SDS011;54641;50.168;8.492;2022-11-04T08:28:00;8.90;;;3.00;;
64037;SDS011;54641;50.168;8.492;2022-11-04T08:30:30;9.50;;;2.70;;
64037;SDS011;54641;50.168;8.492;2022-11-04T08:33:01;6.90;;;3.30;;
64037;SDS011;54641;50.168;8.492;2022-11-04T08:35:32;9.40;;;3.20;;
64037;SDS011;54641;50.168;8.492;2022-11-04T08:38:07;7.40;;;2.50;;
64037;SDS011;54641;50.168;8.492;2022-11-04T08:40:38;8.10;;;3.30;;
64037;SDS011;54641;50.168;8.492;2022-11-04T08:43:09;8.20;;;3.00;;
64037;SDS011;54641;50.168;8.492;2022-11-04T08:45:42;3.90;;;2.30;;
64037;SDS011;54641;50.168;8.492;2022-11-04T08:48:13;5.00;;;2.30;;
64037;SDS011;54641;50.168;8.492;2022-11-04T08:50:47;4.20;;;2.30;;
64037;SDS011;54641;50.168;8.492;2022-11-04T08:53:18;4.80;;;2.10;;
64037;SDS011;54641;50.168;8.492;2022-11-04T08:55:48;7.30;;;2.70;;
64037;SDS011;54641;50.168;8.492;2022-11-04T08:58:19;9.20;;;2.50;;
64037;SDS011;54641;50.168;8.492;2022-11-04T09:00:50;6.50;;;2.20;;
64037;SDS011;54641;50.168;8.492;2022-11-04T09:03:20;6.90;;;2.50;;
64037;SDS011;54641;50.168;8.492;2022-11-04T09:05:51;8.60;;;2.40;;
64037;SDS011;54641;50.168;8.492;2022-11-04T09:08:23;6.20;;;2.40;;
64037;SDS011;54641;50.168;8.492;2022-11-04T09:10:54;6.60;;;2.50;;
64037;SDS011;54641;50.168;8.492;2022-11-04T09:13:24;5.20;;;2.50;;
64037;SDS011;54641;50.168;8.492;2022-11-04T09:15:55;3.80;;;2.50;;
64037;SDS011;54641;50.168;8.492;2022-11-04T09:18:25;6.40;;;2.50;;
64037;SDS011;54641;50.168;8.492;2022-11-04T09:20:56;8.20;;;2.70;;
64037;SDS011;54641;50.168;8.492;2022-11-04T09:26:02;7.50;;;2.80;;
64037;SDS011;54641;50.168;8.492;2022-11-04T09:28:34;7.10;;;2.80;;
64037;SDS011;54641;50.168;8.492;2022-11-04T09:31:05;12.60;;;4.20;;
64037;SDS011;54641;50.168;8.492;2022-11-04T09:33:38;6.30;;;2.50;;
64037;SDS011;54641;50.168;8.492;2022-11-04T09:36:09;5.50;;;2.60;;
64037;SDS011;54641;50.168;8.492;2022-11-04T09:38:41;5.30;;;3.50;;
64037;SDS011;54641;50.168;8.492;2022-11-04T09:41:20;7.10;;;3.00;;
64037;SDS011;54641;50.168;8.492;2022-11-04T09:44:19;7.50;;;3.80;;
64037;SDS011;54641;50.168;8.492;2022-11-04T09:46:52;8.70;;;2.80;;
64037;SDS011;54641;50.168;8.492;2022-11-04T09:49:25;8.20;;;2.60;;
64037;SDS011;54641;50.168;8.492;2022-11-04T09:51:57;9.60;;;2.80;;
64037;SDS011;54641;50.168;8.492;2022-11-04T09:54:29;6.60;;;3.40;;
64037;SDS011;54641;50.168;8.492;2022-11-04T09:57:03;9.50;;;3.30;;
64037;SDS011;54641;50.168;8.492;2022-11-04T09:59:33;7.90;;;3.70;;
64037;SDS011;54641;50.168;8.492;2022-11-04T10:02:10;7.20;;;3.20;;
64037;SDS011;54641;50.168;8.492;2022-11-04T10:04:54;11.40;;;3.20;;
64037;SDS011;54641;50.168;8.492;2022-11-04T10:07:37;6.20;;;3.20;;
64037;SDS011;54641;50.168;8.492;2022-11-04T10:10:16;6.00;;;2.70;;
64037;SDS011;54641;50.168;8.492;2022-11-04T10:12:59;6.60;;;2.90;;
64037;SDS011;54641;50.168;8.492;2022-11-04T10:15:42;6.60;;;3.00;;
64037;SDS011;54641;50.168;8.492;2022-11-04T10:18:37;6.70;;;2.70;;
64037;SDS011;54641;50.168;8.492;2022-11-04T10:21:23;6.90;;;2.40;;
64037;SDS011;54641;50.168;8.492;2022-11-04T10:26:35;7.10;;;2.50;;
64037;SDS011;54641;50.168;8.492;2022-11-04T10:29:11;7.40;;;2.70;;
64037;SDS011;54641;50.168;8.492;2022-11-04T10:31:44;4.90;;;2.10;;
64037;SDS011;54641;50.168;8.492;2022-11-04T10:34:18;6.00;;;2.90;;
64037;SDS011;54641;50.168;8.492;2022-11-04T10:36:55;6.20;;;2.30;;
64037;SDS011;54641;50.168;8.492;2022-11-04T10:39:29;8.20;;;3.50;;
64037;SDS011;54641;50.168;8.492;2022-11-04T10:42:02;7.20;;;2.80;;
64037;SDS011;54641;50.168;8.492;2022-11-04T10:44:33;7.30;;;2.90;;
64037;SDS011;54641;50.168;8.492;2022-11-04T10:47:09;6.30;;;2.80;;
64037;SDS011;54641;50.168;8.492;2022-11-04T10:49:56;6.70;;;3.30;;
64037;SDS011;54641;50.168;8.492;2022-11-04T10:53:28;6.10;;;2.70;;
64037;SDS011;54641;50.168;8.492;2022-11-04T10:56:03;4.40;;;3.20;;
64037;SDS011;54641;50.168;8.492;2022-11-04T10:58:41;7.50;;;3.00;;
64037;SDS011;54641;50.168;8.492;2022-11-04T11:01:23;7.40;;;3.10;;
64037;SDS011;54641;50.168;8.492;2022-11-04T11:03:56;5.30;;;2.70;;
64037;SDS011;54641;50.168;8.492;2022-11-04T11:06:27;12.10;;;3.90;;
64037;SDS011;54641;50.168;8.492;2022-11-04T11:09:00;7.70;;;3.60;;
64037;SDS011;54641;50.168;8.492;2022-11-04T11:11:42;6.10;;;3.20;;
64037;SDS011;54641;50.168;8.492;2022-11-04T11:14:18;9.70;;;4.30;;
64037;SDS011;54641;50.168;8.492;2022-11-04T11:22:32;6.70;;;4.50;;
64037;SDS011;54641;50.168;8.492;2022-11-04T11:25:18;8.70;;;3.50;;
64037;SDS011;54641;50.168;8.492;2022-11-04T11:27:52;6.90;;;3.30;;
64037;SDS011;54641;50.168;8.492;2022-11-04T11:30:25;6.00;;;3.20;;
64037;SDS011;54641;50.168;8.492;2022-11-04T11:32:59;8.40;;;3.40;;
64037;SDS011;54641;50.168;8.492;2022-11-04T11:35:33;4.90;;;2.80;;
64037;SDS011;54641;50.168;8.492;2022-11-04T11:38:16;6.50;;;3.00;;
64037;SDS011;54641;50.168;8.492;2022-11-04T11:40:49;7.00;;;3.20;;
64037;SDS011;54641;50.168;8.492;2022-11-04T11:43:42;8.60;;;3.30;;
64037;SDS011;54641;50.168;8.492;2022-11-04T11:46:21;7.10;;;3.30;;
64037;SDS011;54641;50.168;8.492;2022-11-04T11:54:47;6.00;;;2.40;;
64037;SDS011;54641;50.168;8.492;2022-11-04T11:59:55;5.70;;;2.10;;
64037;SDS011;54641;50.168;8.492;2022-11-04T12:02:54;8.30;;;2.40;;
64037;SDS011;54641;50.168;8.492;2022-11-04T12:05:29;5.10;;;2.20;;
64037;SDS011;54641;50.168;8.492;2022-11-04T12:08:30;6.90;;;2.70;;
64037;SDS011;54641;50.168;8.492;2022-11-04T12:11:30;7.00;;;2.70;;
64037;SDS011;54641;50.168;8.492;2022-11-04T12:14:07;6.60;;;2.60;;
64037;SDS011;54641;50.168;8.492;2022-11-04T12:16:45;7.30;;;2.60;;
64037;SDS011;54641;50.168;8.492;2022-11-04T12:19:26;5.40;;;3.00;;
64037;SDS011;54641;50.168;8.492;2022-11-04T12:22:21;6.10;;;2.90;;
64037;SDS011;54641;50.168;8.492;2022-11-04T12:24:58;8.00;;;2.30;;
64037;SDS011;54641;50.168;8.492;2022-11-04T12:27:33;10.10;;;4.10;;
64037;SDS011;54641;50.168;8.492;2022-11-04T12:30:08;8.30;;;3.10;;
64037;SDS011;54641;50.168;8.492;2022-11-04T12:32:52;6.60;;;2.90;;
64037;SDS011;54641;50.168;8.492;2022-11-04T12:35:34;5.20;;;2.50;;
64037;SDS011;54641;50.168;8.492;2022-11-04T12:38:14;5.50;;;1.90;;
64037;SDS011;54641;50.168;8.492;2022-11-04T12:40:52;8.90;;;2.10;;
64037;SDS011;54641;50.168;8.492;2022-11-04T12:43:50;3.90;;;2.10;;
64037;SDS011;54641;50.168;8.492;2022-11-04T12:46:24;5.80;;;1.60;;
64037;SDS011;54641;50.168;8.492;2022-11-04T12:51:55;6.80;;;2.20;;
64037;SDS011;54641;50.168;8.492;2022-11-04T13:00:42;4.70;;;2.10;;
64037;SDS011;54641;50.168;8.492;2022-11-04T13:03:15;5.20;;;1.80;;
64037;SDS011;54641;50.168;8.492;2022-11-04T13:05:49;4.80;;;1.60;;
64037;SDS011;54641;50.168;8.492;2022-11-04T13:08:23;5.60;;;1.80;;
64037;SDS011;54641;50.168;8.492;2022-11-04T13:10:57;4.60;;;1.50;;
64037;SDS011;54641;50.168;8.492;2022-11-04T13:13:30;5.40;;;1.90;;
64037;SDS011;54641;50.168;8.492;2022-11-04T13:16:03;4.80;;;1.80;;
64037;SDS011;54641;50.168;8.492;2022-11-04T13:18:38;5.10;;;1.40;;
64037;SDS011;54641;50.168;8.492;2022-11-04T13:21:10;5.10;;;1.60;;
64037;SDS011;54641;50.168;8.492;2022-11-04T13:23:45;5.80;;;1.50;;
64037;SDS011;54641;50.168;8.492;2022-11-04T13:26:19;3.50;;;1.60;;
64037;SDS011;54641;50.168;8.492;2022-11-04T13:28:55;2.40;;;1.20;;
64037;SDS011;54641;50.168;8.492;2022-11-04T13:31:43;3.80;;;1.60;;
64037;SDS011;54641;50.168;8.492;2022-11-04T13:34:21;3.50;;;1.40;;
64037;SDS011;54641;50.168;8.492;2022-11-04T13:39:35;5.30;;;1.90;;
64037;SDS011;54641;50.168;8.492;2022-11-04T13:42:18;6.90;;;1.20;;
64037;SDS011;54641;50.168;8.492;2022-11-04T13:44:55;3.60;;;1.30;;
64037;SDS011;54641;50.168;8.492;2022-11-04T13:47:33;6.20;;;2.20;;
64037;SDS011;54641;50.168;8.492;2022-11-04T13:50:05;4.00;;;1.40;;
64037;SDS011;54641;50.168;8.492;2022-11-04T13:52:56;6.30;;;1.70;;
64037;SDS011;54641;50.168;8.492;2022-11-04T13:55:27;4.40;;;1.50;;
64037;SDS011;54641;50.168;8.492;2022-11-04T13:57:58;5.40;;;1.70;;
64037;SDS011;54641;50.168;8.492;2022-11-04T14:00:30;4.10;;;1.50;;
64037;SDS011;54641;50.168;8.492;2022-11-04T14:03:22;6.10;;;2.00;;
64037;SDS011;54641;50.168;8.492;2022-11-04T14:06:51;6.80;;;1.90;;
64037;SDS011;54641;50.168;8.492;2022-11-04T14:09:35;5.30;;;2.00;;
64037;SDS011;54641;50.168;8.492;2022-11-04T14:12:36;4.40;;;1.50;;
64037;SDS011;54641;50.168;8.492;2022-11-04T14:15:10;8.00;;;2.50;;
64037;SDS011;54641;50.168;8.492;2022-11-04T14:20:37;6.20;;;1.90;;
64037;SDS011;54641;50.168;8.492;2022-11-04T14:23:32;5.80;;;2.10;;
64037;SDS011;54641;50.168;8.492;2022-11-04T14:26:03;6.60;;;1.90;;
64037;SDS011;54641;50.168;8.492;2022-11-04T14:28:35;6.60;;;2.20;;
64037;SDS011;54641;50.168;8.492;2022-11-04T14:31:07;5.40;;;2.50;;
64037;SDS011;54641;50.168;8.492;2022-11-04T14:33:50;4.90;;;1.70;;
64037;SDS011;54641;50.168;8.492;2022-11-04T14:36:32;7.80;;;2.10;;
64037;SDS011;54641;50.168;8.492;2022-11-04T14:39:18;7.20;;;1.90;;
64037;SDS011;54641;50.168;8.492;2022-11-04T14:41:52;4.90;;;1.90;;
64037;SDS011;54641;50.168;8.492;2022-11-04T14:44:35;7.20;;;2.20;;
64037;SDS011;54641;50.168;8.492;2022-11-04T14:47:13;8.50;;;2.40;;
64037;SDS011;54641;50.168;8.492;2022-11-04T14:49:46;5.60;;;2.10;;
64037;SDS011;54641;50.168;8.492;2022-11-04T14:52:21;5.10;;;2.10;;
64037;SDS011;54641;50.168;8.492;2022-11-04T14:54:56;6.40;;;3.10;;
64037;SDS011;54641;50.168;8.492;2022-11-04T14:57:40;5.90;;;2.20;;
64037;SDS011;54641;50.168;8.492;2022-11-04T15:03:11;8.70;;;3.10;;
64037;SDS011;54641;50.168;8.492;2022-11-04T15:06:04;4.70;;;2.00;;
64037;SDS011;54641;50.168;8.492;2022-11-04T15:08:36;5.20;;;2.70;;
64037;SDS011;54641;50.168;8.492;2022-11-04T15:11:12;5.40;;;1.90;;
64037;SDS011;54641;50.168;8.492;2022-11-04T15:13:46;5.60;;;1.90;;
64037;SDS011;54641;50.168;8.492;2022-11-04T15:16:17;7.20;;;1.80;;
64037;SDS011;54641;50.168;8.492;2022-11-04T15:21:19;3.30;;;1.80;;
64037;SDS011;54641;50.168;8.492;2022-11-04T15:23:51;5.50;;;2.20;;
64037;SDS011;54641;50.168;8.492;2022-11-04T15:26:22;3.90;;;1.90;;
64037;SDS011;54641;50.168;8.492;2022-11-04T15:28:57;4.80;;;1.90;;
64037;SDS011;54641;50.168;8.492;2022-11-04T15:31:29;5.60;;;2.00;;
64037;SDS011;54641;50.168;8.492;2022-11-04T15:34:00;8.90;;;1.70;;
64037;SDS011;54641;50.168;8.492;2022-11-04T15:39:11;4.80;;;2.40;;
64037;SDS011;54641;50.168;8.492;2022-11-04T15:41:43;4.40;;;2.10;;
64037;SDS011;54641;50.168;8.492;2022-11-04T15:44:33;3.90;;;2.10;;
64037;SDS011;54641;50.168;8.492;2022-11-04T15:50:18;8.40;;;2.50;;
64037;SDS011;54641;50.168;8.492;2022-11-04T15:52:53;7.20;;;2.50;;
64037;SDS011;54641;50.168;8.492;2022-11-04T15:55:25;7.80;;;3.70;;
64037;SDS011;54641;50.168;8.492;2022-11-04T15:57:56;5.00;;;2.80;;
64037;SDS011;54641;50.168;8.492;2022-11-04T16:00:27;8.90;;;2.90;;
64037;SDS011;54641;50.168;8.492;2022-11-04T16:02:58;5.90;;;2.10;;
64037;SDS011;54641;50.168;8.492;2022-11-04T16:05:33;6.00;;;2.50;;
64037;SDS011;54641;50.168;8.492;2022-11-04T16:08:28;4.80;;;2.20;;
64037;SDS011;54641;50.168;8.492;2022-11-04T16:11:09;5.40;;;2.30;;
64037;SDS011;54641;50.168;8.492;2022-11-04T16:13:42;8.70;;;2.50;;
64037;SDS011;54641;50.168;8.492;2022-11-04T16:16:23;4.90;;;2.30;;
64037;SDS011;54641;50.168;8.492;2022-11-04T16:18:54;8.10;;;2.60;;
64037;SDS011;54641;50.168;8.492;2022-11-04T16:21:27;7.60;;;3.60;;
64037;SDS011;54641;50.168;8.492;2022-11-04T16:23:59;13.90;;;6.40;;
64037;SDS011;54641;50.168;8.492;2022-11-04T16:29:06;8.30;;;4.70;;
64037;SDS011;54641;50.168;8.492;2022-11-04T16:31:38;8.90;;;3.90;;
64037;SDS011;54641;50.168;8.492;2022-11-04T16:34:09;9.20;;;3.50;;
64037;SDS011;54641;50.168;8.492;2022-11-04T16:36:40;5.80;;;3.20;;
64037;SDS011;54641;50.168;8.492;2022-11-04T16:39:11;6.90;;;3.80;;
64037;SDS011;54641;50.168;8.492;2022-11-04T16:41:42;7.60;;;3.70;;
64037;SDS011;54641;50.168;8.492;2022-11-04T16:44:16;6.80;;;2.80;;
64037;SDS011;54641;50.168;8.492;2022-11-04T16:46:49;9.70;;;4.10;;
64037;SDS011;54641;50.168;8.492;2022-11-04T16:49:19;11.60;;;3.10;;
64037;SDS011;54641;50.168;8.492;2022-11-04T16:51:52;7.10;;;2.80;;